Time;durP1;ratioP1;P1;durP2;ratioP2;P2;SDS_P1;SDS_P2;PMS_P1;PMS_P2;Temp;Humidity;BMP_temperature;BMP_pressure;BME280_temperature;BME280_humidity;BME280_pressure;Samples;Min_cycle;Max_cycle;Signal;HPM_P1;HPM_P2
2023/07/23 00:01:06;;;;;;;12.25;5.82;;;;;;;;;;6211412;23;20016;-64
2023/07/23 00:03:32;;;;;;;11.45;6.70;;;;;;;;;;6210806;23;20016;-64
2023/07/23 00:05:58;;;;;;;12.95;7.25;;;;;;;;;;6211203;23;20444;-64
2023/07/23 00:08:24;;;;;;;13.48;6.50;;;;;;;;;;6211224;23;20017;-64
2023/07/23 00:10:55;;;;;;;16.63;7.35;;;;;;;;;;6210722;23;20128;-64
2023/07/23 00:13:21;;;;;;;9.60;5.75;;;;;;;;;;6211336;23;20371;-64
2023/07/23 00:15:47;;;;;;;10.95;6.60;;;;;;;;;;6211239;23;20028;-64
2023/07/23 00:18:13;;;;;;;10.98;6.65;;;;;;;;;;6210280;23;20043;-64
2023/07/23 00:20:39;;;;;;;15.73;7.13;;;;;;;;;;6211516;23;20102;-64
2023/07/23 00:23:05;;;;;;;17.60;7.32;;;;;;;;;;6209634;23;20453;-64
2023/07/23 00:25:31;;;;;;;12.57;7.50;;;;;;;;;;6208798;23;20028;-64
2023/07/23 00:27:57;;;;;;;11.10;6.93;;;;;;;;;;6211056;23;20020;-64
2023/07/23 00:30:23;;;;;;;12.63;7.22;;;;;;;;;;6210846;23;20060;-64
2023/07/23 00:32:49;;;;;;;11.63;7.40;;;;;;;;;;6210469;23;20446;-64
2023/07/23 00:35:15;;;;;;;13.65;7.22;;;;;;;;;;6210730;23;20013;-64
2023/07/23 00:37:41;;;;;;;13.68;6.95;;;;;;;;;;6210485;23;20086;-64
2023/07/23 00:40:07;;;;;;;11.05;7.32;;;;;;;;;;6210632;23;20096;-64
2023/07/23 00:42:33;;;;;;;11.80;7.43;;;;;;;;;;6210682;23;20013;-64
2023/07/23 00:44:59;;;;;;;12.43;6.88;;;;;;;;;;6210891;23;20012;-64
2023/07/23 00:47:25;;;;;;;13.10;7.10;;;;;;;;;;6210552;23;20347;-64
2023/07/23 00:49:52;;;;;;;13.15;7.30;;;;;;;;;;6210337;23;20013;-64
2023/07/23 00:52:18;;;;;;;12.73;7.15;;;;;;;;;;6210775;23;20372;-64
2023/07/23 00:54:44;;;;;;;13.93;7.55;;;;;;;;;;6210799;23;20012;-64
2023/07/23 00:57:11;;;;;;;14.50;7.32;;;;;;;;;;6210957;23;20013;-64
2023/07/23 00:59:37;;;;;;;12.52;7.15;;;;;;;;;;6211076;23;20329;-64
2023/07/23 01:02:03;;;;;;;12.48;7.13;;;;;;;;;;6210686;23;20027;-64
2023/07/23 01:04:30;;;;;;;10.75;6.45;;;;;;;;;;6209931;23;20044;-64
2023/07/23 01:06:57;;;;;;;13.82;7.40;;;;;;;;;;6210156;23;20039;-64
2023/07/23 01:09:24;;;;;;;12.73;7.60;;;;;;;;;;6210735;23;20341;-64
2023/07/23 01:11:52;;;;;;;13.55;7.55;;;;;;;;;;6210246;23;20372;-64
2023/07/23 01:14:17;;;;;;;13.27;7.60;;;;;;;;;;6210682;23;20454;-64
2023/07/23 01:16:44;;;;;;;14.85;7.75;;;;;;;;;;6210802;23;20013;-64
2023/07/23 01:19:14;;;;;;;13.07;7.38;;;;;;;;;;6210482;23;20028;-64
2023/07/23 01:21:40;;;;;;;12.90;7.65;;;;;;;;;;6210784;23;20047;-64
2023/07/23 01:24:06;;;;;;;14.82;7.47;;;;;;;;;;6210732;23;20008;-64
2023/07/23 01:26:32;;;;;;;12.52;7.85;;;;;;;;;;6209835;23;20020;-64
2023/07/23 01:28:58;;;;;;;12.57;7.35;;;;;;;;;;6210670;23;20013;-64
2023/07/23 01:31:24;;;;;;;12.45;7.78;;;;;;;;;;6210264;23;20466;-64
2023/07/23 01:33:52;;;;;;;12.23;7.43;;;;;;;;;;6210010;23;20021;-64
2023/07/23 01:36:19;;;;;;;12.98;7.50;;;;;;;;;;6210314;23;20343;-64
2023/07/23 01:38:44;;;;;;;16.23;7.75;;;;;;;;;;6210662;23;20028;-64
2023/07/23 01:41:11;;;;;;;15.70;7.85;;;;;;;;;;6210261;23;20008;-64
2023/07/23 01:43:36;;;;;;;10.70;6.95;;;;;;;;;;6210172;23;20313;-64
2023/07/23 01:46:02;;;;;;;13.70;7.05;;;;;;;;;;6210446;23;20052;-64
2023/07/23 01:48:28;;;;;;;12.43;6.88;;;;;;;;;;6210689;23;20317;-64
2023/07/23 01:50:54;;;;;;;14.40;7.25;;;;;;;;;;6212813;23;20021;-64
2023/07/23 01:53:20;;;;;;;11.93;7.18;;;;;;;;;;6212599;23;20020;-64
2023/07/23 01:55:46;;;;;;;13.80;7.40;;;;;;;;;;6212192;23;20021;-64
2023/07/23 01:58:12;;;;;;;11.68;7.70;;;;;;;;;;6212554;23;20015;-64
2023/07/23 02:00:39;;;;;;;11.88;7.25;;;;;;;;;;6212596;23;20335;-64
2023/07/23 02:03:05;;;;;;;13.43;8.00;;;;;;;;;;6212383;23;20020;-64
2023/07/23 02:05:31;;;;;;;12.93;7.80;;;;;;;;;;6212341;23;20023;-64
2023/07/23 02:07:57;;;;;;;15.45;7.50;;;;;;;;;;6212465;23;20012;-64
2023/07/23 02:10:23;;;;;;;13.63;7.75;;;;;;;;;;6212273;23;20336;-64
2023/07/23 02:12:48;;;;;;;14.80;8.57;;;;;;;;;;6212418;23;20063;-64
2023/07/23 02:15:14;;;;;;;14.00;8.48;;;;;;;;;;6212461;23;20363;-64
2023/07/23 02:17:41;;;;;;;15.27;7.82;;;;;;;;;;6185008;23;20016;-64
2023/07/23 02:20:08;;;;;;;15.77;7.88;;;;;;;;;;6212018;23;20020;-64
2023/07/23 02:22:34;;;;;;;15.40;8.27;;;;;;;;;;6212638;23;20039;-64
2023/07/23 02:25:00;;;;;;;13.85;8.60;;;;;;;;;;6211755;23;20432;-64
2023/07/23 02:27:26;;;;;;;15.10;9.00;;;;;;;;;;6212302;23;20154;-64
2023/07/23 02:29:52;;;;;;;15.07;8.52;;;;;;;;;;6212139;23;20459;-64
2023/07/23 02:32:18;;;;;;;15.75;8.93;;;;;;;;;;6211690;23;20071;-64
2023/07/23 02:34:44;;;;;;;16.85;9.07;;;;;;;;;;6212123;23;20447;-64
2023/07/23 02:37:10;;;;;;;15.40;9.00;;;;;;;;;;6211806;23;20099;-64
2023/07/23 02:39:36;;;;;;;17.15;9.43;;;;;;;;;;6212220;23;20017;-64
2023/07/23 02:42:02;;;;;;;18.52;9.75;;;;;;;;;;6212042;23;20321;-64
2023/07/23 02:44:28;;;;;;;18.35;8.90;;;;;;;;;;6211718;23;20031;-64
2023/07/23 02:46:54;;;;;;;12.77;8.05;;;;;;;;;;6211666;23;20016;-64
2023/07/23 02:49:20;;;;;;;16.27;9.25;;;;;;;;;;6212260;23;20344;-64
2023/07/23 02:51:46;;;;;;;21.65;9.35;;;;;;;;;;6212073;23;20017;-64
2023/07/23 02:54:12;;;;;;;18.42;10.02;;;;;;;;;;6211588;23;20052;-64
2023/07/23 02:56:38;;;;;;;17.75;8.82;;;;;;;;;;6211821;23;20020;-64
2023/07/23 02:59:04;;;;;;;17.67;9.57;;;;;;;;;;6211658;23;20280;-64
2023/07/23 03:01:30;;;;;;;15.13;9.52;;;;;;;;;;6210852;23;20013;-64
2023/07/23 03:03:56;;;;;;;15.20;9.48;;;;;;;;;;6211836;23;20012;-64
2023/07/23 03:06:22;;;;;;;17.30;10.85;;;;;;;;;;6210050;23;20016;-64
2023/07/23 03:08:48;;;;;;;17.20;9.65;;;;;;;;;;6211549;23;20343;-64
2023/07/23 03:11:14;;;;;;;15.70;9.43;;;;;;;;;;6211804;23;20027;-64
2023/07/23 03:13:40;;;;;;;16.83;9.52;;;;;;;;;;6211607;23;20071;-64
2023/07/23 03:16:06;;;;;;;15.50;9.30;;;;;;;;;;6211304;23;20056;-64
2023/07/23 03:18:32;;;;;;;17.80;10.30;;;;;;;;;;6211698;23;20012;-64
2023/07/23 03:20:58;;;;;;;14.77;8.85;;;;;;;;;;6184949;23;20016;-64
2023/07/23 03:23:24;;;;;;;16.23;9.77;;;;;;;;;;6211372;23;20486;-64
2023/07/23 03:25:50;;;;;;;17.65;9.80;;;;;;;;;;6211659;23;20017;-64
2023/07/23 03:28:16;;;;;;;14.02;9.45;;;;;;;;;;6212209;23;20097;-64
2023/07/23 03:30:42;;;;;;;11.52;9.30;;;;;;;;;;6211174;23;20474;-64
2023/07/23 03:33:08;;;;;;;16.77;9.75;;;;;;;;;;6211613;23;20032;-64
2023/07/23 03:35:34;;;;;;;19.88;9.55;;;;;;;;;;6210832;23;20449;-64
2023/07/23 03:38:00;;;;;;;17.27;9.57;;;;;;;;;;6211067;23;20012;-64
2023/07/23 03:40:26;;;;;;;19.10;10.10;;;;;;;;;;6211574;23;20046;-64
2023/07/23 03:42:52;;;;;;;17.30;9.77;;;;;;;;;;6211855;23;20461;-64
2023/07/23 03:45:18;;;;;;;16.30;10.15;;;;;;;;;;6211021;23;20035;-64
2023/07/23 03:47:44;;;;;;;15.13;9.68;;;;;;;;;;6211784;23;20048;-64
2023/07/23 03:50:10;;;;;;;16.00;10.13;;;;;;;;;;6184971;23;20363;-64
2023/07/23 03:52:36;;;;;;;19.02;10.52;;;;;;;;;;6210934;23;20012;-64
2023/07/23 03:55:02;;;;;;;17.77;10.27;;;;;;;;;;6210928;23;20068;-64
2023/07/23 03:57:29;;;;;;;23.58;10.75;;;;;;;;;;6211458;23;20470;-64
2023/07/23 03:59:55;;;;;;;17.65;9.65;;;;;;;;;;6211109;23;20017;-64
2023/07/23 04:02:21;;;;;;;20.05;11.20;;;;;;;;;;6211078;23;20008;-64
2023/07/23 04:04:47;;;;;;;15.88;10.20;;;;;;;;;;6211658;23;20016;-64
2023/07/23 04:07:13;;;;;;;16.15;9.70;;;;;;;;;;6211298;23;20088;-64
2023/07/23 04:09:39;;;;;;;17.33;10.68;;;;;;;;;;6211058;23;20391;-64
2023/07/23 04:12:05;;;;;;;19.75;10.90;;;;;;;;;;6211178;23;20020;-64
2023/07/23 04:14:31;;;;;;;18.30;10.98;;;;;;;;;;6211315;23;20016;-64
2023/07/23 04:16:57;;;;;;;18.48;10.00;;;;;;;;;;6210850;23;20020;-64
2023/07/23 04:19:23;;;;;;;22.52;10.57;;;;;;;;;;6211321;23;20428;-64
2023/07/23 04:21:49;;;;;;;19.08;10.50;;;;;;;;;;6210920;23;20017;-64
2023/07/23 04:24:15;;;;;;;19.50;10.25;;;;;;;;;;6210553;23;20016;-64
2023/07/23 04:26:41;;;;;;;17.30;10.38;;;;;;;;;;6210847;23;20017;-64
2023/07/23 04:29:08;;;;;;;22.52;10.98;;;;;;;;;;6210949;23;20448;-64
2023/07/23 04:31:34;;;;;;;20.67;10.40;;;;;;;;;;6210566;23;20495;-64
2023/07/23 04:34:00;;;;;;;15.27;10.70;;;;;;;;;;6211101;23;20021;-64
2023/07/23 04:36:28;;;;;;;15.98;9.93;;;;;;;;;;6210618;23;20021;-64
2023/07/23 04:38:54;;;;;;;19.08;11.18;;;;;;;;;;6210468;23;20016;-64
2023/07/23 04:41:20;;;;;;;15.80;10.25;;;;;;;;;;6210979;23;20012;-64
2023/07/23 04:43:45;;;;;;;15.88;10.20;;;;;;;;;;6183974;23;20143;-64
2023/07/23 04:46:12;;;;;;;13.93;10.30;;;;;;;;;;6210331;23;20031;-64
2023/07/23 04:48:38;;;;;;;25.13;12.52;;;;;;;;;;6210841;23;20067;-64
2023/07/23 04:51:05;;;;;;;23.52;11.82;;;;;;;;;;6211027;23;20021;-64
2023/07/23 04:53:31;;;;;;;25.30;12.60;;;;;;;;;;6210496;23;20023;-64
2023/07/23 04:55:58;;;;;;;21.23;11.55;;;;;;;;;;6210889;23;20012;-64
2023/07/23 04:58:25;;;;;;;16.88;10.23;;;;;;;;;;6211022;23;20013;-64
2023/07/23 05:00:52;;;;;;;19.20;11.48;;;;;;;;;;6210540;23;20013;-64
2023/07/23 05:03:18;;;;;;;20.02;13.07;;;;;;;;;;6210888;23;20448;-64
2023/07/23 05:05:46;;;;;;;18.80;12.25;;;;;;;;;;6210984;23;20012;-64
2023/07/23 05:08:12;;;;;;;19.27;11.30;;;;;;;;;;6210460;23;20020;-64
2023/07/23 05:10:39;;;;;;;18.08;11.15;;;;;;;;;;6210862;23;20103;-64
2023/07/23 05:13:05;;;;;;;21.13;12.20;;;;;;;;;;6210398;23;20043;-64
2023/07/23 05:15:32;;;;;;;21.75;11.68;;;;;;;;;;6210425;23;20055;-64
2023/07/23 05:17:58;;;;;;;19.92;12.70;;;;;;;;;;6211181;23;20063;-64
2023/07/23 05:20:24;;;;;;;16.65;11.60;;;;;;;;;;6211112;23;20009;-64
2023/07/23 05:22:50;;;;;;;18.85;12.48;;;;;;;;;;6211212;23;20516;-64
2023/07/23 05:25:16;;;;;;;25.05;11.93;;;;;;;;;;6214083;23;20009;-64
2023/07/23 05:27:42;;;;;;;18.40;11.63;;;;;;;;;;6214070;23;20020;-64
2023/07/23 05:30:08;;;;;;;16.90;10.55;;;;;;;;;;6213687;23;20008;-64
2023/07/23 05:32:34;;;;;;;22.90;12.88;;;;;;;;;;6214014;23;20321;-64
2023/07/23 05:35:00;;;;;;;23.00;11.68;;;;;;;;;;6214262;23;20392;-64
2023/07/23 05:37:26;;;;;;;19.52;12.02;;;;;;;;;;6213241;23;20047;-64
2023/07/23 05:39:53;;;;;;;23.00;12.73;;;;;;;;;;6214111;23;20439;-64
2023/07/23 05:42:19;;;;;;;21.58;12.15;;;;;;;;;;6213862;23;20016;-64
2023/07/23 05:44:45;;;;;;;21.38;12.52;;;;;;;;;;6213562;23;20435;-64
2023/07/23 05:47:11;;;;;;;20.55;12.52;;;;;;;;;;6213947;23;20083;-64
2023/07/23 05:49:37;;;;;;;20.60;12.45;;;;;;;;;;6214034;23;20348;-64
2023/07/23 05:52:03;;;;;;;20.75;12.30;;;;;;;;;;6213601;23;20020;-64
2023/07/23 05:54:29;;;;;;;23.88;13.30;;;;;;;;;;6214345;23;20055;-64
2023/07/23 05:56:55;;;;;;;18.45;11.20;;;;;;;;;;6213369;23;20016;-64
2023/07/23 05:59:21;;;;;;;21.67;12.32;;;;;;;;;;6213528;23;20338;-64
2023/07/23 06:01:47;;;;;;;18.05;12.00;;;;;;;;;;6213855;23;20013;-64
2023/07/23 06:04:13;;;;;;;22.40;13.27;;;;;;;;;;6213900;23;20551;-64
2023/07/23 06:06:40;;;;;;;19.48;11.35;;;;;;;;;;6213750;23;20044;-64
2023/07/23 06:09:06;;;;;;;23.25;11.68;;;;;;;;;;6213830;23;20020;-64
2023/07/23 06:11:32;;;;;;;19.20;12.52;;;;;;;;;;6187249;23;20012;-64
2023/07/23 06:14:02;;;;;;;20.42;11.85;;;;;;;;;;6213299;23;20017;-64
2023/07/23 06:16:28;;;;;;;16.33;11.23;;;;;;;;;;6214113;23;20020;-64
2023/07/23 06:18:53;;;;;;;20.20;12.02;;;;;;;;;;6213740;23;20086;-64
2023/07/23 06:21:19;;;;;;;20.38;12.70;;;;;;;;;;6186744;23;20020;-64
2023/07/23 06:23:45;;;;;;;18.80;12.70;;;;;;;;;;6213701;23;20309;-64
2023/07/23 06:26:11;;;;;;;20.42;11.73;;;;;;;;;;6213556;23;20363;-64
2023/07/23 06:28:37;;;;;;;21.80;11.45;;;;;;;;;;6213449;23;20012;-64
2023/07/23 06:31:03;;;;;;;22.52;12.50;;;;;;;;;;6214019;23;20070;-64
2023/07/23 06:33:29;;;;;;;25.45;13.20;;;;;;;;;;6186785;23;20792;-64
2023/07/23 06:35:55;;;;;;;18.77;12.52;;;;;;;;;;6210964;23;20025;-64
2023/07/23 06:38:21;;;;;;;23.17;13.13;;;;;;;;;;6212081;23;20051;-64
2023/07/23 06:40:48;;;;;;;19.40;12.82;;;;;;;;;;6211819;23;20013;-64
2023/07/23 06:43:16;;;;;;;18.90;11.85;;;;;;;;;;6211491;23;20013;-64
2023/07/23 06:45:43;;;;;;;22.85;12.07;;;;;;;;;;6211996;23;20036;-64
2023/07/23 06:48:09;;;;;;;21.33;12.57;;;;;;;;;;6211980;23;20013;-64
2023/07/23 06:50:35;;;;;;;22.92;12.82;;;;;;;;;;6211656;23;20043;-64
2023/07/23 06:53:01;;;;;;;21.85;12.70;;;;;;;;;;6185194;23;20016;-64
2023/07/23 06:55:27;;;;;;;20.13;12.60;;;;;;;;;;6211931;23;20019;-64
2023/07/23 06:57:53;;;;;;;20.30;12.30;;;;;;;;;;6211449;23;20012;-64
2023/07/23 07:00:19;;;;;;;19.42;11.95;;;;;;;;;;6185076;23;20032;-64
2023/07/23 07:02:45;;;;;;;20.92;11.50;;;;;;;;;;6211813;23;20012;-64
2023/07/23 07:05:11;;;;;;;18.48;11.23;;;;;;;;;;6211429;23;20040;-64
2023/07/23 07:07:37;;;;;;;22.23;12.38;;;;;;;;;;6212140;23;20013;-64
2023/07/23 07:10:04;;;;;;;22.27;11.88;;;;;;;;;;6212100;23;20013;-64
2023/07/23 07:12:30;;;;;;;19.77;11.50;;;;;;;;;;6211352;23;20412;-64
2023/07/23 07:14:56;;;;;;;23.75;12.10;;;;;;;;;;6211818;23;20012;-64
2023/07/23 07:17:22;;;;;;;19.20;11.10;;;;;;;;;;6211682;23;20626;-64
2023/07/23 07:19:48;;;;;;;18.38;11.25;;;;;;;;;;6211468;23;20088;-64
2023/07/23 07:22:15;;;;;;;18.13;10.52;;;;;;;;;;6211500;23;20066;-64
2023/07/23 07:24:41;;;;;;;20.52;11.68;;;;;;;;;;6211670;23;20013;-64
2023/07/23 07:27:10;;;;;;;21.50;11.93;;;;;;;;;;6212123;23;20095;-64
2023/07/23 07:29:40;;;;;;;23.08;12.30;;;;;;;;;;6211839;23;20016;-64
2023/07/23 07:32:07;;;;;;;20.33;11.25;;;;;;;;;;6211393;23;20027;-64
2023/07/23 07:34:33;;;;;;;24.48;11.90;;;;;;;;;;6211531;23;20379;-64
2023/07/23 07:36:59;;;;;;;24.17;11.80;;;;;;;;;;6210866;23;20075;-64
2023/07/23 07:39:25;;;;;;;21.20;11.48;;;;;;;;;;6211313;23;20008;-64
2023/07/23 07:41:53;;;;;;;19.65;10.20;;;;;;;;;;6211223;23;20009;-64
2023/07/23 07:44:19;;;;;;;21.77;10.55;;;;;;;;;;6211337;23;20009;-64
2023/07/23 07:46:46;;;;;;;16.95;10.80;;;;;;;;;;6211501;23;20404;-64
2023/07/23 07:49:12;;;;;;;21.80;11.13;;;;;;;;;;6211600;23;20020;-64
2023/07/23 07:51:43;;;;;;;16.25;9.75;;;;;;;;;;6211243;23;20023;-64
2023/07/23 07:54:09;;;;;;;18.60;10.90;;;;;;;;;;6184573;23;20017;-64
2023/07/23 07:56:35;;;;;;;21.10;11.25;;;;;;;;;;6211114;23;20020;-64
2023/07/23 07:59:04;;;;;;;18.48;10.45;;;;;;;;;;6211273;23;20016;-64
2023/07/23 08:01:30;;;;;;;17.95;9.82;;;;;;;;;;6211646;23;20024;-64
2023/07/23 08:03:56;;;;;;;18.83;10.38;;;;;;;;;;6211321;23;20094;-64
2023/07/23 08:06:22;;;;;;;19.20;10.57;;;;;;;;;;6210850;23;20460;-64
2023/07/23 08:08:50;;;;;;;18.52;11.00;;;;;;;;;;6210893;23;20016;-64
2023/07/23 08:11:16;;;;;;;16.77;9.55;;;;;;;;;;6211356;23;20038;-64
2023/07/23 08:13:42;;;;;;;19.15;10.65;;;;;;;;;;6210844;23;20035;-64
2023/07/23 08:16:12;;;;;;;20.33;10.95;;;;;;;;;;6184492;23;20020;-64
2023/07/23 08:18:38;;;;;;;16.30;9.73;;;;;;;;;;6211325;23;20013;-64
2023/07/23 08:21:04;;;;;;;18.90;10.20;;;;;;;;;;6210983;23;20008;-64
2023/07/23 08:23:31;;;;;;;17.58;10.40;;;;;;;;;;6211126;23;20016;-64
2023/07/23 08:25:58;;;;;;;21.92;11.90;;;;;;;;;;6211511;23;20019;-64
2023/07/23 08:28:27;;;;;;;17.45;10.55;;;;;;;;;;6210522;23;20016;-64
2023/07/23 08:30:55;;;;;;;17.30;10.25;;;;;;;;;;6211156;23;20051;-64
2023/07/23 08:33:22;;;;;;;16.48;10.00;;;;;;;;;;6211071;23;20019;-64
2023/07/23 08:35:48;;;;;;;16.98;9.52;;;;;;;;;;6210346;23;20024;-64
2023/07/23 08:38:18;;;;;;;20.05;10.75;;;;;;;;;;6211085;23;20016;-64
2023/07/23 08:40:44;;;;;;;14.80;9.38;;;;;;;;;;6211306;23;20332;-64
2023/07/23 08:43:22;;;;;;;17.42;10.70;;;;;;;;;;6210552;23;20490;-64
2023/07/23 08:46:00;;;;;;;16.77;9.63;;;;;;;;;;6211033;23;20013;-64
2023/07/23 08:48:32;;;;;;;19.05;9.77;;;;;;;;;;6210894;23;20344;-64
2023/07/23 08:50:58;;;;;;;15.88;9.95;;;;;;;;;;6210876;23;20016;-64
2023/07/23 08:53:24;;;;;;;16.10;8.82;;;;;;;;;;6210726;23;20088;-64
2023/07/23 08:55:50;;;;;;;17.85;10.05;;;;;;;;;;6209285;23;20016;-64
2023/07/23 08:58:17;;;;;;;16.40;9.57;;;;;;;;;;6210185;23;20055;-64
2023/07/23 09:00:44;;;;;;;15.82;9.13;;;;;;;;;;6211045;23;20075;-64
2023/07/23 09:03:11;;;;;;;15.40;9.15;;;;;;;;;;6210839;23;20096;-64
2023/07/23 09:05:38;;;;;;;16.73;9.13;;;;;;;;;;6210375;23;20036;-64
2023/07/23 09:08:04;;;;;;;16.23;9.20;;;;;;;;;;6210875;23;20093;-64
2023/07/23 09:10:30;;;;;;;24.63;9.38;;;;;;;;;;6210862;23;20028;-64
2023/07/23 09:12:56;;;;;;;15.55;9.30;;;;;;;;;;6210177;23;20432;-64
2023/07/23 09:15:22;;;;;;;12.65;8.52;;;;;;;;;;6210474;23;20197;-64
2023/07/23 09:17:49;;;;;;;15.43;8.30;;;;;;;;;;6210968;23;20009;-64
2023/07/23 09:20:17;;;;;;;13.93;7.50;;;;;;;;;;6210637;23;20087;-64
2023/07/23 09:22:43;;;;;;;13.38;8.80;;;;;;;;;;6210695;23;20055;-64
2023/07/23 09:25:09;;;;;;;13.00;8.50;;;;;;;;;;6210793;23;20008;-64
2023/07/23 09:27:41;;;;;;;13.07;8.38;;;;;;;;;;6210404;23;20083;-64
2023/07/23 09:30:07;;;;;;;15.18;8.93;;;;;;;;;;6210733;23;20487;-64
2023/07/23 09:32:33;;;;;;;13.50;7.88;;;;;;;;;;6210673;23;20313;-64
2023/07/23 09:34:59;;;;;;;15.13;7.65;;;;;;;;;;6183177;23;20012;-64
2023/07/23 09:37:28;;;;;;;14.38;8.05;;;;;;;;;;6210200;23;20091;-64
2023/07/23 09:39:56;;;;;;;13.07;8.50;;;;;;;;;;6210831;23;20109;-64
2023/07/23 09:42:22;;;;;;;15.77;8.02;;;;;;;;;;6210123;23;20459;-64
2023/07/23 09:44:49;;;;;;;13.38;7.55;;;;;;;;;;6210536;23;20012;-64
2023/07/23 09:47:15;;;;;;;9.85;7.35;;;;;;;;;;6210677;23;20020;-64
2023/07/23 09:49:42;;;;;;;12.77;7.35;;;;;;;;;;6210070;23;20020;-64
2023/07/23 09:52:09;;;;;;;11.43;7.18;;;;;;;;;;6210446;23;20078;-64
2023/07/23 09:54:35;;;;;;;10.35;7.32;;;;;;;;;;6211051;23;20020;-64
2023/07/23 09:57:02;;;;;;;10.27;6.97;;;;;;;;;;6210065;23;20023;-64
2023/07/23 09:59:28;;;;;;;10.93;7.07;;;;;;;;;;6210759;23;20357;-64
2023/07/23 10:01:55;;;;;;;11.40;7.82;;;;;;;;;;6210529;23;20031;-64
2023/07/23 10:04:22;;;;;;;13.80;7.65;;;;;;;;;;6209632;23;20020;-64
2023/07/23 10:06:48;;;;;;;12.13;7.05;;;;;;;;;;6210480;23;20091;-64
2023/07/23 10:09:16;;;;;;;11.68;6.43;;;;;;;;;;6210944;23;20024;-64
2023/07/23 10:11:42;;;;;;;9.93;6.75;;;;;;;;;;6211979;23;20048;-64
2023/07/23 10:14:08;;;;;;;8.93;6.57;;;;;;;;;;6185528;23;20347;-64
2023/07/23 10:16:40;;;;;;;9.50;7.20;;;;;;;;;;6212415;23;20072;-64
2023/07/23 10:19:06;;;;;;;;;;;;;;;;;;6212169;23;20055;-64
2023/07/23 10:21:36;;;;;;;8.43;6.03;;;;;;;;;;6212283;23;19911;-64
2023/07/23 10:24:03;;;;;;;8.73;6.32;;;;;;;;;;6185388;23;20017;-64
2023/07/23 10:26:29;;;;;;;11.65;6.95;;;;;;;;;;6211828;23;20013;-64
2023/07/23 10:29:08;;;;;;;12.65;6.30;;;;;;;;;;6212397;23;20080;-64
2023/07/23 10:31:34;;;;;;;9.98;6.88;;;;;;;;;;6212356;23;20316;-64
2023/07/23 10:34:00;;;;;;;11.20;6.38;;;;;;;;;;6211672;23;20091;-64
2023/07/23 10:36:26;;;;;;;9.32;6.57;;;;;;;;;;6210363;23;20361;-64
2023/07/23 10:39:11;;;;;;;11.38;6.80;;;;;;;;;;6212626;23;20044;-64
2023/07/23 10:41:51;;;;;;;9.75;6.00;;;;;;;;;;6211652;23;20015;-64
2023/07/23 10:44:24;;;;;;;11.65;7.15;;;;;;;;;;6212014;23;20087;-64
2023/07/23 10:46:50;;;;;;;11.57;6.78;;;;;;;;;;6212159;23;20494;-64
2023/07/23 10:49:21;;;;;;;10.82;7.45;;;;;;;;;;6211704;23;20020;-64
2023/07/23 10:51:50;;;;;;;9.33;6.77;;;;;;;;;;6211931;23;20108;-64
2023/07/23 10:54:18;;;;;;;13.85;7.70;;;;;;;;;;6212172;23;20079;-64
2023/07/23 10:56:44;;;;;;;9.57;7.35;;;;;;;;;;6211911;23;20498;-64
2023/07/23 10:59:22;;;;;;;12.15;7.35;;;;;;;;;;6212141;23;20432;-64
2023/07/23 11:01:49;;;;;;;11.05;7.18;;;;;;;;;;6211652;23;20012;-64
2023/07/23 11:04:25;;;;;;;11.10;7.28;;;;;;;;;;6212196;23;20448;-64
2023/07/23 11:07:01;;;;;;;16.35;7.63;;;;;;;;;;6184919;23;20016;-64
2023/07/23 11:09:34;;;;;;;13.43;7.57;;;;;;;;;;6211828;23;20012;-64
2023/07/23 11:12:02;;;;;;;10.05;7.25;;;;;;;;;;6211985;23;20031;-64
2023/07/23 11:14:29;;;;;;;10.43;7.40;;;;;;;;;;6212025;23;20356;-64
2023/07/23 11:16:56;;;;;;;10.65;7.50;;;;;;;;;;6210974;23;20227;-64
2023/07/23 11:19:26;;;;;;;13.15;7.35;;;;;;;;;;6211639;23;20383;-64
2023/07/23 11:21:56;;;;;;;14.18;7.97;;;;;;;;;;6211475;23;20013;-64
2023/07/23 11:24:23;;;;;;;12.73;7.68;;;;;;;;;;6211823;23;20009;-64
2023/07/23 11:26:50;;;;;;;10.50;7.72;;;;;;;;;;6211923;23;20024;-64
2023/07/23 11:29:16;;;;;;;10.10;6.82;;;;;;;;;;6211834;23;20497;-64
2023/07/23 11:31:42;;;;;;;11.88;7.68;;;;;;;;;;6210756;23;20017;-64
2023/07/23 11:34:09;;;;;;;11.50;7.57;;;;;;;;;;6209931;23;20100;-64
2023/07/23 11:36:36;;;;;;;15.55;7.63;;;;;;;;;;6211244;23;20355;-64
2023/07/23 11:39:02;;;;;;;13.60;7.78;;;;;;;;;;6211000;23;20088;-64
2023/07/23 11:41:35;;;;;;;12.43;7.28;;;;;;;;;;6211734;23;20091;-64
2023/07/23 11:44:05;;;;;;;13.02;7.50;;;;;;;;;;6211070;23;20013;-64
2023/07/23 11:46:34;;;;;;;11.20;7.97;;;;;;;;;;6211028;23;20016;-64
2023/07/23 11:49:01;;;;;;;12.25;7.70;;;;;;;;;;6211300;23;20131;-64
2023/07/23 11:51:34;;;;;;;11.95;7.47;;;;;;;;;;6211704;23;20168;-64
2023/07/23 11:54:02;;;;;;;10.02;7.05;;;;;;;;;;6211323;23;20024;-64
2023/07/23 11:56:29;;;;;;;13.63;8.10;;;;;;;;;;6211585;23;20048;-64
2023/07/23 11:58:55;;;;;;;10.30;6.72;;;;;;;;;;6211263;23;20012;-64
2023/07/23 12:01:21;;;;;;;9.90;7.18;;;;;;;;;;6211041;23;20210;-64
2023/07/23 12:03:46;;;;;;;11.60;6.90;;;;;;;;;;6211648;23;20423;-64
2023/07/23 12:06:13;;;;;;;11.38;6.30;;;;;;;;;;6211206;23;20040;-64
2023/07/23 12:08:40;;;;;;;11.20;6.43;;;;;;;;;;6210837;23;20040;-64
2023/07/23 12:11:13;;;;;;;10.02;7.03;;;;;;;;;;6211024;23;20047;-64
2023/07/23 12:13:43;;;;;;;8.93;6.05;;;;;;;;;;6211278;23;20425;-64
2023/07/23 12:16:32;;;;;;;9.68;7.03;;;;;;;;;;6210359;23;20016;-64
2023/07/23 12:19:05;;;;;;;10.60;6.68;;;;;;;;;;6211248;23;20056;-64
2023/07/23 12:21:34;;;;;;;10.18;6.68;;;;;;;;;;6184400;23;20017;-64
2023/07/23 12:24:13;;;;;;;9.23;6.28;;;;;;;;;;6183922;23;20452;-64
2023/07/23 12:26:39;;;;;;;11.75;6.32;;;;;;;;;;6211217;23;20048;-64
2023/07/23 12:29:05;;;;;;;9.55;6.60;;;;;;;;;;6211255;23;20016;-64
2023/07/23 12:31:31;;;;;;;8.38;5.55;;;;;;;;;;6210813;23;20018;-64
2023/07/23 12:33:57;;;;;;;9.50;6.57;;;;;;;;;;6210967;23;20080;-64
2023/07/23 12:36:23;;;;;;;8.43;6.20;;;;;;;;;;6210643;23;20017;-64
2023/07/23 12:38:49;;;;;;;9.82;6.07;;;;;;;;;;6210684;23;20389;-64
2023/07/23 12:41:15;;;;;;;9.57;6.10;;;;;;;;;;6211179;23;20088;-64
2023/07/23 12:43:41;;;;;;;9.40;5.72;;;;;;;;;;6184128;23;20036;-64
2023/07/23 12:46:07;;;;;;;8.43;5.93;;;;;;;;;;6210117;23;20020;-64
2023/07/23 12:48:33;;;;;;;7.75;6.18;;;;;;;;;;6210642;23;20091;-64
2023/07/23 12:50:59;;;;;;;9.55;5.82;;;;;;;;;;6211081;23;20063;-64
2023/07/23 12:53:25;;;;;;;9.88;6.95;;;;;;;;;;6210235;23;20375;-64
2023/07/23 12:55:51;;;;;;;8.73;6.32;;;;;;;;;;6210801;23;20036;-64
2023/07/23 12:58:17;;;;;;;8.98;7.15;;;;;;;;;;6210893;23;20383;-64
2023/07/23 13:00:43;;;;;;;9.10;6.43;;;;;;;;;;6210947;23;20332;-64
2023/07/23 13:03:09;;;;;;;8.25;6.15;;;;;;;;;;6210915;23;20043;-64
2023/07/23 13:05:35;;;;;;;8.32;6.85;;;;;;;;;;6210920;23;20058;-64
2023/07/23 13:08:01;;;;;;;11.15;6.85;;;;;;;;;;6210266;23;20088;-64
2023/07/23 13:10:27;;;;;;;8.60;6.68;;;;;;;;;;6210555;23;20070;-64
2023/07/23 13:12:53;;;;;;;9.27;6.50;;;;;;;;;;6210748;23;20016;-64
2023/07/23 13:15:19;;;;;;;9.65;7.15;;;;;;;;;;6210257;23;20618;-64
2023/07/23 13:17:47;;;;;;;10.30;7.28;;;;;;;;;;6210837;23;20167;-64
2023/07/23 13:20:13;;;;;;;13.50;7.40;;;;;;;;;;6210933;23;20016;-64
2023/07/23 13:22:39;;;;;;;11.10;7.97;;;;;;;;;;6210251;23;20509;-64
2023/07/23 13:25:05;;;;;;;9.45;6.95;;;;;;;;;;6210888;23;20107;-64
2023/07/23 13:27:31;;;;;;;11.90;8.02;;;;;;;;;;6210624;23;20008;-64
2023/07/23 13:29:57;;;;;;;10.95;7.28;;;;;;;;;;6210510;23;20023;-64
2023/07/23 13:32:23;;;;;;;11.30;9.23;;;;;;;;;;6210665;23;20517;-64
2023/07/23 13:34:49;;;;;;;13.77;9.82;;;;;;;;;;6210363;23;20016;-64
2023/07/23 13:37:15;;;;;;;11.30;9.63;;;;;;;;;;6209646;23;20331;-64
2023/07/23 13:39:41;;;;;;;11.45;9.13;;;;;;;;;;6210291;23;20012;-64
2023/07/23 13:42:07;;;;;;;11.13;8.80;;;;;;;;;;6209087;23;20079;-64
2023/07/23 13:44:33;;;;;;;9.88;8.65;;;;;;;;;;6211427;23;20009;-64
2023/07/23 13:46:59;;;;;;;12.23;8.90;;;;;;;;;;6212080;23;20016;-64
2023/07/23 13:49:25;;;;;;;10.35;9.07;;;;;;;;;;6212652;23;20020;-64
2023/07/23 13:51:51;;;;;;;10.48;8.43;;;;;;;;;;6212567;23;20023;-64
2023/07/23 13:54:17;;;;;;;12.10;8.57;;;;;;;;;;6212220;23;20016;-64
2023/07/23 13:56:43;;;;;;;9.40;8.30;;;;;;;;;;6212853;23;20088;-64
2023/07/23 13:59:09;;;;;;;9.10;8.07;;;;;;;;;;6211061;23;20343;-64
2023/07/23 14:01:35;;;;;;;10.07;8.57;;;;;;;;;;6212200;23;20016;-64
2023/07/23 14:04:01;;;;;;;9.48;8.43;;;;;;;;;;6212212;23;20027;-64
2023/07/23 14:06:27;;;;;;;8.60;7.50;;;;;;;;;;6212524;23;20360;-64
2023/07/23 14:08:53;;;;;;;9.05;7.88;;;;;;;;;;6212135;23;20013;-64
2023/07/23 14:11:19;;;;;;;11.50;9.27;;;;;;;;;;6212601;23;20436;-64
2023/07/23 14:13:45;;;;;;;10.50;8.85;;;;;;;;;;6212781;23;20050;-64
2023/07/23 14:16:11;;;;;;;10.57;9.10;;;;;;;;;;6212068;23;20019;-65
2023/07/23 14:18:37;;;;;;;12.23;8.95;;;;;;;;;;6212401;23;20055;-65
2023/07/23 14:21:03;;;;;;;10.25;9.20;;;;;;;;;;6212497;23;20111;-65
2023/07/23 14:23:29;;;;;;;14.55;9.45;;;;;;;;;;6211812;23;20005;-65
2023/07/23 14:25:56;;;;;;;9.77;7.47;;;;;;;;;;6212410;23;20499;-65